createdAt,value
2023-04-11T00:00:49.345Z,98684.88
2023-04-11T00:04:57.384Z,98684.36
2023-04-11T00:09:05.798Z,98680.02
2023-04-11T00:13:13.980Z,98680.28
2023-04-11T00:16:42.706Z,98683.38
2023-04-11T00:20:50.889Z,98680.52
2023-04-11T00:24:49.255Z,98675.48
2023-04-11T00:28:57.460Z,98671.98
2023-04-11T00:33:05.825Z,98682.30
2023-04-11T00:37:03.815Z,98681.80
2023-04-11T00:40:55.776Z,98680.91
2023-04-11T00:45:03.924Z,98678.88
2023-04-11T00:49:11.725Z,98668.23
2023-04-11T00:53:20.929Z,98675.61
2023-04-11T00:57:10.216Z,98676.77
2023-04-11T01:01:18.379Z,98686.52
2023-04-11T01:04:59.415Z,98688.55
2023-04-11T01:08:40.023Z,98685.51
2023-04-11T01:12:29.018Z,98687.16
2023-04-11T01:16:21.338Z,98696.50
2023-04-11T01:20:30.867Z,98696.95
2023-04-11T01:24:32.094Z,98689.50
2023-04-11T01:28:33.808Z,98680.48
2023-04-11T01:32:06.338Z,98683.60
2023-04-11T01:36:15.512Z,98691.69
2023-04-11T01:40:24.668Z,98688.72
2023-04-11T01:44:32.785Z,98684.83
2023-04-11T01:48:41.169Z,98680.84
2023-04-11T01:52:50.773Z,98678.42
2023-04-11T01:56:58.851Z,98683.78
2023-04-11T02:00:45.220Z,98685.63
2023-04-11T02:04:53.415Z,98686.38
2023-04-11T02:09:01.607Z,98679.92
2023-04-11T02:12:59.152Z,98673.09
2023-04-11T02:16:41.686Z,98674.45
2023-04-11T02:20:50.806Z,98671.50
2023-04-11T02:24:41.910Z,98666.14
2023-04-11T02:28:40.268Z,98658.61
2023-04-11T02:32:45.437Z,98657.80
2023-04-11T02:36:38.192Z,98654.22
2023-04-11T02:40:07.266Z,98660.04
2023-04-11T02:43:57.297Z,98660.50
2023-04-11T02:48:06.577Z,98671.45
2023-04-11T02:51:56.877Z,98675.33
2023-04-11T02:55:33.254Z,98670.43
2023-04-11T02:59:20.739Z,98665.03
2023-04-11T03:03:17.589Z,98668.45
2023-04-11T03:06:27.075Z,98673.73
2023-04-11T03:10:20.626Z,98675.95
2023-04-11T03:14:28.694Z,98673.95
2023-04-11T03:18:03.015Z,98674.19
2023-04-11T03:22:12.200Z,98670.77
2023-04-11T03:26:20.545Z,98668.85
2023-04-11T03:30:28.656Z,98669.14
2023-04-11T03:34:18.410Z,98668.39
2023-04-11T03:38:26.259Z,98669.95
2023-04-11T03:42:34.372Z,98672.95
2023-04-11T03:46:22.616Z,98672.27
2023-04-11T03:50:13.594Z,98667.73
2023-04-11T03:54:20.335Z,98667.11
2023-04-11T03:57:52.014Z,98662.98
2023-04-11T04:01:09.966Z,98665.22
2023-04-11T04:05:08.021Z,98662.67
2023-04-11T04:09:06.000Z,98661.16
2023-04-11T04:12:09.963Z,98666.95
2023-04-11T04:15:43.014Z,98664.53
2023-04-11T04:19:04.450Z,98658.02
2023-04-11T04:21:42.035Z,98655.80
2023-04-11T04:25:39.315Z,98653.19
2023-04-11T04:28:39.868Z,98653.32
2023-04-11T04:32:01.757Z,98649.07
2023-04-11T04:35:10.622Z,98641.94
2023-04-11T04:38:28.590Z,98640.58
2023-04-11T04:41:41.689Z,98632.90
2023-04-11T04:45:44.757Z,98633.44
2023-04-11T04:48:43.243Z,98637.62
2023-04-11T04:51:41.752Z,98648.02
2023-04-11T04:55:14.746Z,98649.94
2023-04-11T04:58:13.932Z,98658.96
2023-04-11T05:01:18.158Z,98656.24
2023-04-11T05:04:13.553Z,98647.48
2023-04-11T05:07:15.756Z,98646.95
2023-04-11T05:10:33.044Z,98647.52
2023-04-11T05:13:20.758Z,98655.77
2023-04-11T05:17:08.882Z,98655.83
2023-04-11T05:19:49.373Z,98656.27
2023-04-11T05:22:50.408Z,98648.25
2023-04-11T05:25:59.050Z,98648.09
2023-04-11T05:28:35.955Z,98646.31
2023-04-11T05:31:57.137Z,98643.20
2023-04-11T05:35:18.376Z,98638.86
2023-04-11T05:38:17.815Z,98635.77
2023-04-11T05:41:15.758Z,98633.59
2023-04-11T05:43:46.112Z,98634.64
2023-04-11T05:46:28.392Z,98633.61
2023-04-11T05:53:13.964Z,98625.20
2023-04-11T05:55:50.188Z,98623.86
2023-04-11T05:58:17.664Z,98618.21
2023-04-11T06:00:56.368Z,98618.60
2023-04-11T06:03:29.671Z,98620.10
2023-04-11T06:06:09.790Z,98615.77
2023-04-11T06:08:49.474Z,98615.36
2023-04-11T06:11:16.663Z,98614.45
2023-04-11T06:13:51.004Z,98616.48
2023-04-11T06:16:18.196Z,98611.20
2023-04-11T06:18:45.424Z,98605.20
2023-04-11T06:21:12.473Z,98599.92
2023-04-11T06:23:40.755Z,98597.31
2023-04-11T06:26:09.738Z,98593.64
2023-04-11T06:28:40.191Z,98588.24
2023-04-11T06:31:09.781Z,98584.20
2023-04-11T06:33:38.459Z,98584.73
2023-04-11T06:36:06.353Z,98584.16
2023-04-11T06:38:35.055Z,98582.72
2023-04-11T06:41:02.082Z,98580.27
2023-04-11T06:43:30.633Z,98581.58
2023-04-11T06:45:58.298Z,98579.69
2023-04-11T06:48:26.457Z,98579.02
2023-04-11T06:50:53.616Z,98574.21
2023-04-11T06:53:21.539Z,98570.48
2023-04-11T06:55:49.791Z,98566.56
2023-04-11T06:58:17.053Z,98567.90
2023-04-11T07:00:44.251Z,98565.19
2023-04-11T07:03:12.540Z,98568.40
2023-04-11T07:05:39.766Z,98563.14
2023-04-11T07:08:14.923Z,98564.68
2023-04-11T07:10:45.066Z,98564.48
2023-04-11T07:13:12.189Z,98564.39
2023-04-11T07:15:40.514Z,98562.23
2023-04-11T07:18:08.948Z,98556.82
2023-04-11T07:20:36.504Z,98545.70
2023-04-11T07:23:04.422Z,98543.51
2023-04-11T07:25:33.707Z,98536.60
2023-04-11T07:28:01.020Z,98533.30
2023-04-11T07:30:28.635Z,98528.67
2023-04-11T07:33:03.280Z,98529.14
2023-04-11T07:35:34.652Z,98527.48
2023-04-11T07:38:01.989Z,98532.42
2023-04-11T07:40:29.517Z,98536.06
2023-04-11T07:42:58.559Z,98532.77
2023-04-11T07:45:26.136Z,98530.45
2023-04-11T07:47:56.215Z,98527.39
2023-04-11T07:50:23.294Z,98521.73
2023-04-11T07:52:51.388Z,98519.45
2023-04-11T07:55:18.724Z,98519.42
2023-04-11T07:57:45.990Z,98518.27
2023-04-11T08:00:20.472Z,98519.63
2023-04-11T08:02:52.881Z,98512.80
2023-04-11T08:05:20.251Z,98516.48
2023-04-11T08:07:51.511Z,98509.80
2023-04-11T08:10:19.999Z,98503.05
2023-04-11T08:12:47.293Z,98497.86
2023-04-11T08:17:29.297Z,98500.52
2023-04-11T08:20:22.988Z,98497.70
2023-04-11T08:22:56.169Z,98499.91
2023-04-11T08:25:27.130Z,98494.30
2023-04-11T08:27:54.923Z,98487.10
2023-04-11T08:30:30.516Z,98486.22
2023-04-11T08:33:35.290Z,98482.60
2023-04-11T08:36:09.951Z,98478.09
2023-04-11T08:38:41.874Z,98474.23
2023-04-11T08:41:19.010Z,98475.08
2023-04-11T08:43:50.356Z,98469.66
2023-04-11T08:46:18.524Z,98467.77
2023-04-11T08:48:51.220Z,98465.84
2023-04-11T08:51:26.832Z,98458.52
2023-04-11T08:53:58.192Z,98449.05
2023-04-11T08:56:26.925Z,98442.88
2023-04-11T08:58:58.031Z,98439.70
2023-04-11T09:01:32.657Z,98435.37
2023-04-11T09:04:01.307Z,98435.86
2023-04-11T09:06:37.091Z,98440.32
2023-04-11T09:09:14.958Z,98436.27
2023-04-11T09:12:06.012Z,98428.92
2023-04-11T09:14:37.946Z,98421.83
2023-04-11T09:17:24.690Z,98416.35
2023-04-11T09:20:14.047Z,98417.14
2023-04-11T09:23:29.686Z,98412.01
2023-04-11T09:25:57.044Z,98412.58
2023-04-11T09:28:50.709Z,98410.72
2023-04-11T09:31:21.805Z,98403.30
2023-04-11T09:34:28.890Z,98410.17
2023-04-11T09:37:04.441Z,98402.64
2023-04-11T09:39:40.801Z,98401.34
2023-04-11T09:42:36.598Z,98402.77
2023-04-11T09:45:04.544Z,98398.90
2023-04-11T09:47:36.785Z,98400.61
2023-04-11T09:50:07.320Z,98394.98
2023-04-11T09:52:34.904Z,98391.18
2023-04-11T09:55:45.111Z,98389.48
2023-04-11T09:58:38.120Z,98381.85
2023-04-11T10:01:19.166Z,98381.67
2023-04-11T10:03:51.165Z,98373.56
2023-04-11T10:06:47.130Z,98365.10
2023-04-11T10:09:14.426Z,98363.30
2023-04-11T10:12:30.050Z,98364.05
2023-04-11T10:15:16.545Z,98352.91
2023-04-11T10:18:11.653Z,98351.63
2023-04-11T10:20:44.921Z,98339.52
2023-04-11T10:23:52.371Z,98338.70
2023-04-11T10:26:57.836Z,98338.73
2023-04-11T10:29:54.583Z,98331.48
2023-04-11T10:32:26.925Z,98323.30
2023-04-11T10:34:57.753Z,98319.48
2023-04-11T10:37:48.350Z,98311.48
2023-04-11T10:40:15.713Z,98304.64
2023-04-11T10:42:44.858Z,98306.30
2023-04-11T10:45:24.645Z,98300.40
2023-04-11T10:48:07.660Z,98297.30
2023-04-11T10:50:50.713Z,98293.70
2023-04-11T10:53:41.941Z,98293.13
2023-04-11T10:56:14.630Z,98290.31
2023-04-11T10:58:43.372Z,98298.20
2023-04-11T11:01:31.778Z,98302.31
2023-04-11T11:04:05.119Z,98298.66
2023-04-11T11:06:38.054Z,98296.92
2023-04-11T11:09:23.711Z,98295.44
2023-04-11T11:12:13.935Z,98290.76
2023-04-11T11:14:47.216Z,98289.04
2023-04-11T11:17:23.807Z,98285.63
2023-04-11T11:19:52.433Z,98284.34
2023-04-11T11:22:26.177Z,98281.02
2023-04-11T11:25:14.809Z,98278.65
2023-04-11T11:27:45.567Z,98277.95
2023-04-11T11:30:14.414Z,98279.54
2023-04-11T11:32:45.340Z,98274.34
2023-04-11T11:35:19.107Z,98275.43
2023-04-11T11:37:52.614Z,98276.48
2023-04-11T11:40:24.625Z,98273.63
2023-04-11T11:42:51.916Z,98269.78
2023-04-11T11:45:22.718Z,98268.19
2023-04-11T11:47:57.511Z,98267.52
2023-04-11T11:50:33.850Z,98259.10
2023-04-11T11:53:20.281Z,98258.68
2023-04-11T11:55:50.527Z,98253.34
2023-04-11T11:58:27.452Z,98251.01
2023-04-11T12:00:58.127Z,98244.55
2023-04-11T12:03:25.647Z,98245.08
2023-04-11T12:05:59.760Z,98244.13
2023-04-11T12:08:27.296Z,98243.77
2023-04-11T12:10:54.602Z,98239.49
2023-04-11T12:13:40.156Z,98236.41
2023-04-11T12:16:14.210Z,98235.61
2023-04-11T12:18:45.202Z,98232.60
2023-04-11T12:21:13.065Z,98225.73
2023-04-11T12:23:40.289Z,98223.03
2023-04-11T12:26:10.511Z,98219.91
2023-04-11T12:28:37.949Z,98215.80
2023-04-11T12:31:05.644Z,98211.27
2023-04-11T12:33:37.228Z,98203.68
2023-04-11T12:36:13.338Z,98203.51
2023-04-11T12:38:42.848Z,98201.30
2023-04-11T12:41:31.009Z,98190.67
2023-04-11T12:50:12.886Z,98174.70
2023-04-11T12:52:40.740Z,98162.91
2023-04-11T12:55:11.213Z,98158.98
2023-04-11T12:57:39.948Z,98156.33
2023-04-11T13:00:22.967Z,98149.48
2023-04-11T13:06:29.214Z,98144.48
2023-04-11T13:12:32.719Z,98130.52
2023-04-11T13:45:05.203Z,98080.48
2023-04-11T13:50:42.863Z,98070.88
2023-04-11T13:53:20.742Z,98066.53
2023-04-11T13:57:26.681Z,98067.69
2023-04-11T13:59:59.238Z,98065.64
2023-04-11T14:02:39.074Z,98062.84
2023-04-11T14:05:15.716Z,98063.98
2023-04-11T14:07:49.630Z,98056.92
2023-04-11T14:10:20.349Z,98052.77
2023-04-11T14:13:06.828Z,98055.55
2023-04-11T14:15:36.839Z,98054.32
2023-04-11T14:18:06.605Z,98050.55
2023-04-11T14:20:38.252Z,98051.79
2023-04-11T14:23:13.508Z,98048.79
2023-04-11T14:26:00.804Z,98046.88
2023-04-11T14:28:35.004Z,98043.04
2023-04-11T14:31:05.698Z,98037.84
2023-04-11T14:33:47.956Z,98039.09
2023-04-11T14:36:15.776Z,98031.29
2023-04-11T14:38:52.170Z,98022.66
2023-04-11T14:41:27.163Z,98020.25
2023-04-11T14:44:00.643Z,98017.13
2023-04-11T14:46:28.499Z,98014.39
2023-04-11T14:48:58.881Z,98014.77
2023-04-11T14:51:29.036Z,98009.83
2023-04-11T14:54:13.168Z,98018.66
2023-04-11T14:57:11.220Z,98014.27
2023-04-11T14:59:46.398Z,98012.11
2023-04-11T15:02:21.634Z,98010.98
2023-04-11T15:05:39.358Z,98009.86
2023-04-11T15:08:10.417Z,98007.34
2023-04-11T15:10:58.612Z,97999.00
2023-04-11T15:13:48.423Z,97994.94
2023-04-11T15:16:17.938Z,97992.96
2023-04-11T15:18:55.789Z,97988.98
2023-04-11T15:21:34.012Z,97989.19
2023-04-11T15:24:07.905Z,97986.27
2023-04-11T15:26:35.076Z,97985.58
2023-04-11T15:29:24.388Z,97986.83
2023-04-11T15:31:51.735Z,97980.38
2023-04-11T15:34:27.974Z,97981.51
2023-04-11T15:36:59.794Z,97983.70
2023-04-11T15:39:27.258Z,97979.06
2023-04-11T15:41:57.375Z,97977.27
2023-04-11T15:44:24.632Z,97971.52
2023-04-11T15:46:54.178Z,97967.30
2023-04-11T15:49:23.891Z,97969.04
2023-04-11T15:51:57.500Z,97969.02
2023-04-11T15:54:38.725Z,97965.34
2023-04-11T15:57:29.376Z,97961.70
2023-04-11T15:59:56.852Z,97954.89
2023-04-11T16:02:24.631Z,97950.12
2023-04-11T16:07:35.004Z,97945.14
2023-04-11T16:10:02.867Z,97952.23
2023-04-11T16:12:43.580Z,97953.69
2023-04-11T16:15:14.684Z,97951.83
2023-04-11T16:17:50.428Z,97949.66
2023-04-11T16:20:21.320Z,97947.05
2023-04-11T16:22:51.329Z,97947.01
2023-04-11T16:25:29.766Z,97941.89
2023-04-11T16:28:07.450Z,97944.16
2023-04-11T16:30:37.031Z,97942.36
2023-04-11T16:33:07.506Z,97942.42
2023-04-11T16:35:35.607Z,97939.94
2023-04-11T16:38:03.504Z,97940.11
2023-04-11T16:40:38.944Z,97944.93
2023-04-11T16:43:06.495Z,97940.71
2023-04-11T16:45:34.790Z,97938.03
2023-04-11T16:48:02.302Z,97938.57
2023-04-11T16:50:29.725Z,97939.50
2023-04-11T16:53:00.632Z,97938.07
2023-04-11T16:55:27.968Z,97937.79
2023-04-11T16:57:58.104Z,97938.06
2023-04-11T17:00:49.421Z,97937.64
2023-04-11T17:03:18.230Z,97936.98
2023-04-11T17:05:46.023Z,97936.27
2023-04-11T17:08:45.747Z,97936.13
2023-04-11T17:11:33.245Z,97937.98
2023-04-11T17:14:03.344Z,97942.40
2023-04-11T17:16:39.981Z,97944.65
2023-04-11T17:19:10.560Z,97947.09
2023-04-11T17:21:46.673Z,97948.57
2023-04-11T17:24:17.562Z,97944.73
2023-04-11T17:26:55.949Z,97949.41
2023-04-11T17:29:26.408Z,97948.43
2023-04-11T17:31:56.106Z,97949.46
2023-04-11T17:34:23.986Z,97951.13
2023-04-11T17:36:52.705Z,97954.17
2023-04-11T17:39:22.970Z,97953.85
2023-04-11T17:42:01.439Z,97953.52
2023-04-11T17:44:28.932Z,97953.02
2023-04-11T17:46:59.320Z,97949.80
2023-04-11T17:49:39.378Z,97947.84
2023-04-11T17:52:06.393Z,97949.23
2023-04-11T17:54:52.912Z,97953.09
2023-04-11T17:57:38.708Z,97952.30
2023-04-11T18:00:27.206Z,97956.11
2023-04-11T18:02:58.800Z,97959.64
2023-04-11T18:05:49.890Z,97964.92
2023-04-11T18:08:39.217Z,97970.50
2023-04-11T18:11:34.096Z,97971.86
2023-04-11T18:14:04.653Z,97971.69
2023-04-11T18:16:36.310Z,97971.27
2023-04-11T18:19:29.521Z,97965.20
2023-04-11T18:22:04.787Z,97967.77
2023-04-11T18:24:36.369Z,97970.88
2023-04-11T18:27:06.538Z,97985.04
2023-04-11T18:29:33.583Z,98003.02
2023-04-11T18:32:00.828Z,98000.71
2023-04-11T18:34:31.225Z,97998.14
2023-04-11T18:37:27.156Z,98000.59
2023-04-11T18:39:54.310Z,97999.91
2023-04-11T18:42:21.701Z,98002.00
2023-04-11T18:44:52.322Z,98004.25
2023-04-11T18:47:19.941Z,98005.36
2023-04-11T18:49:47.183Z,98005.58
2023-04-11T18:52:14.276Z,98002.25
2023-04-11T18:54:45.234Z,98001.58
2023-04-11T18:57:14.786Z,98005.70
2023-04-11T19:00:17.529Z,98007.90
2023-04-11T19:02:50.927Z,98005.02
2023-04-11T19:05:25.585Z,98003.84
2023-04-11T19:07:52.964Z,98001.85
2023-04-11T19:10:28.446Z,97999.50
2023-04-11T19:12:56.941Z,98000.54
2023-04-11T19:15:39.536Z,97997.64
2023-04-11T19:18:10.643Z,97994.13
2023-04-11T19:20:54.589Z,97995.39
2023-04-11T19:23:37.114Z,97993.67
2023-04-11T19:26:04.992Z,97988.40
2023-04-11T19:28:40.078Z,97991.00
2023-04-11T19:31:08.710Z,97991.61
2023-04-11T19:33:38.922Z,97986.27
2023-04-11T19:36:09.627Z,97979.41
2023-04-11T19:38:39.775Z,97978.80
2023-04-11T19:41:16.378Z,97980.82
2023-04-11T19:43:44.416Z,97976.39
2023-04-11T19:46:12.577Z,97965.98
2023-04-11T19:48:40.301Z,97967.27
2023-04-11T19:51:11.588Z,97964.20
2023-04-11T19:53:44.394Z,97960.69
2023-04-11T19:56:11.908Z,97950.27
2023-04-11T19:58:43.577Z,97945.14
2023-04-11T20:01:13.895Z,97946.64
2023-04-11T20:03:43.389Z,97946.65
2023-04-11T20:06:12.543Z,97942.65
2023-04-11T20:08:55.212Z,97937.81
2023-04-11T20:11:25.898Z,97940.03
2023-04-11T20:14:42.634Z,97943.17
2023-04-11T20:17:16.033Z,97935.70
2023-04-11T20:19:59.421Z,97935.60
2023-04-11T20:22:29.956Z,97935.94
2023-04-11T20:25:18.425Z,97934.21
2023-04-11T20:27:55.103Z,97931.86
2023-04-11T20:30:54.002Z,97925.89
2023-04-11T20:33:48.147Z,97919.69
2023-04-11T20:36:40.481Z,97920.73
2023-04-11T20:39:08.228Z,97921.55
2023-04-11T20:41:50.014Z,97920.14
2023-04-11T20:44:22.229Z,97919.71
2023-04-11T20:47:19.807Z,97913.83
2023-04-11T20:49:56.170Z,97917.52
2023-04-11T20:52:53.908Z,97914.45
2023-04-11T20:56:14.877Z,97916.13
2023-04-11T20:58:42.820Z,97913.63
2023-04-11T21:01:44.522Z,97910.80
2023-04-11T21:05:31.611Z,97909.91
2023-04-11T21:09:25.519Z,97905.03
2023-04-11T21:13:12.532Z,97906.90
2023-04-11T21:16:24.650Z,97909.02
2023-04-11T21:20:10.453Z,97914.30
2023-04-11T21:24:19.598Z,97913.29
2023-04-11T21:27:52.439Z,97908.86
2023-04-11T21:31:30.508Z,97910.66
2023-04-11T21:34:49.919Z,97911.67
2023-04-11T21:37:55.478Z,97906.64
2023-04-11T21:40:55.804Z,97904.75
2023-04-11T21:44:23.711Z,97903.42
2023-04-11T21:47:15.241Z,97898.96
2023-04-11T21:50:34.515Z,97891.46
2023-04-11T21:54:27.795Z,97892.02
2023-04-11T21:58:36.031Z,97892.67
2023-04-11T22:02:37.352Z,97885.92
2023-04-11T22:05:45.689Z,97879.28
2023-04-11T22:09:01.327Z,97874.80
2023-04-11T22:12:21.278Z,97867.80
2023-04-11T22:15:55.733Z,97868.34
2023-04-11T22:19:01.232Z,97866.55
2023-04-11T22:22:08.249Z,97862.55
2023-04-11T22:25:32.173Z,97850.27
2023-04-11T22:28:27.693Z,97847.61
2023-04-11T22:31:23.790Z,97840.77
2023-04-11T22:33:54.579Z,97835.13
2023-04-11T22:36:46.778Z,97832.27
2023-04-11T22:40:22.001Z,97827.59
2023-04-11T22:43:49.746Z,97824.87
2023-04-11T22:47:34.352Z,97822.97
2023-04-11T22:50:24.160Z,97817.89
2023-04-11T22:53:42.111Z,97816.66
2023-04-11T22:57:05.249Z,97816.35
2023-04-11T23:00:24.191Z,97810.42
2023-04-11T23:04:03.429Z,97810.33
2023-04-11T23:07:53.759Z,97804.67
2023-04-11T23:11:36.408Z,97791.45
2023-04-11T23:15:34.680Z,97788.33
2023-04-11T23:19:42.758Z,97780.76
2023-04-11T23:23:25.095Z,97773.48
2023-04-11T23:27:14.416Z,97770.09
2023-04-11T23:30:29.925Z,97763.11
2023-04-11T23:34:30.693Z,97760.79
2023-04-11T23:38:14.086Z,97757.21
2023-04-11T23:42:15.006Z,97752.15
2023-04-11T23:46:04.860Z,97752.86
2023-04-11T23:50:15.001Z,97745.92
2023-04-11T23:54:24.050Z,97741.58
2023-04-11T23:58:07.590Z,97739.55
